createdAt,value
2016-05-28T00:00:42.516Z,0
2016-05-28T00:01:42.629Z,0
2016-05-28T00:02:42.851Z,0
2016-05-28T00:03:42.854Z,0
2016-05-28T00:04:42.746Z,0
2016-05-28T00:05:42.843Z,0
2016-05-28T00:06:42.846Z,0
2016-05-28T00:07:43.254Z,0
2016-05-28T00:08:42.852Z,0
2016-05-28T00:09:42.854Z,0
2016-05-28T00:10:42.840Z,0
2016-05-28T00:11:42.438Z,0
2016-05-28T00:12:42.831Z,0
2016-05-28T00:13:42.427Z,0
2016-05-28T00:14:43.259Z,0
2016-05-28T00:15:42.417Z,0
2016-05-28T00:16:42.435Z,0
2016-05-28T00:17:42.859Z,0
2016-05-28T00:18:42.831Z,0
2016-05-28T00:19:42.693Z,0
2016-05-28T00:20:42.728Z,0
2016-05-28T00:21:42.886Z,0
2016-05-28T00:22:43.030Z,0
2016-05-28T00:23:42.689Z,0
2016-05-28T00:24:42.614Z,0
2016-05-28T00:25:42.428Z,0
2016-05-28T00:26:42.430Z,0
2016-05-28T00:27:42.872Z,0
2016-05-28T00:28:42.842Z,0
2016-05-28T00:29:43.033Z,0
2016-05-28T00:30:43.036Z,0
2016-05-28T00:31:43.225Z,0
2016-05-28T00:32:42.869Z,0
2016-05-28T00:33:42.669Z,0
2016-05-28T00:34:43.046Z,0
2016-05-28T00:35:42.158Z,0
2016-05-28T00:36:42.677Z,0
2016-05-28T00:37:42.836Z,0
2016-05-28T00:38:42.823Z,0
2016-05-28T00:39:42.513Z,0
2016-05-28T00:40:42.624Z,0
2016-05-28T00:41:43.221Z,0
2016-05-28T00:42:42.662Z,0
2016-05-28T00:43:42.821Z,0
2016-05-28T00:44:42.885Z,0
2016-05-28T00:45:43.029Z,0
2016-05-28T00:46:42.813Z,0
2016-05-28T00:47:43.223Z,0
2016-05-28T00:48:42.881Z,0
2016-05-28T00:49:43.353Z,0
2016-05-28T00:50:43.026Z,0
2016-05-28T00:51:42.420Z,0
2016-05-28T00:52:43.032Z,0
2016-05-28T00:53:42.613Z,0
2016-05-28T00:54:42.662Z,0
2016-05-28T00:55:42.415Z,0
2016-05-28T00:56:43.027Z,0
2016-05-28T00:57:42.656Z,0
2016-05-28T00:58:43.017Z,0
2016-05-28T00:59:43.207Z,0
2016-05-28T01:00:42.601Z,0
2016-05-28T01:01:42.619Z,0
2016-05-28T01:02:43.012Z,0
2016-05-28T01:03:42.796Z,0
2016-05-28T01:04:43.314Z,0
2016-05-28T01:05:42.646Z,0
2016-05-28T01:06:42.804Z,0
2016-05-28T01:07:42.807Z,0
2016-05-28T01:08:42.794Z,0
2016-05-28T01:09:42.813Z,0
2016-05-28T01:10:42.988Z,0
2016-05-28T01:11:43.270Z,0
2016-05-28T01:12:42.851Z,0
2016-05-28T01:13:42.307Z,0
2016-05-28T01:14:42.451Z,0
2016-05-28T01:15:42.968Z,0
2016-05-28T01:16:42.644Z,0
2016-05-28T01:17:42.803Z,0
2016-05-28T01:18:42.790Z,0
2016-05-28T01:19:42.745Z,0
2016-05-28T01:20:42.795Z,0
2016-05-28T01:21:43.001Z,0
2016-05-28T01:22:43.003Z,0
2016-05-28T01:23:43.006Z,0
2016-05-28T01:24:43.025Z,0
2016-05-28T01:25:42.824Z,0
2016-05-28T01:26:42.795Z,0
2016-05-28T01:27:42.829Z,0
2016-05-28T01:28:43.192Z,0
2016-05-28T01:29:42.804Z,0
2016-05-28T01:30:42.838Z,0
2016-05-28T01:31:42.809Z,0
2016-05-28T01:32:42.577Z,0
2016-05-28T01:33:42.986Z,0
2016-05-28T01:34:43.145Z,0
2016-05-28T01:35:42.788Z,0
2016-05-28T01:36:42.775Z,0
2016-05-28T01:37:42.794Z,0
2016-05-28T01:38:42.780Z,0
2016-05-28T01:39:43.190Z,0
2016-05-28T01:40:42.989Z,0
2016-05-28T01:41:42.774Z,0
2016-05-28T01:42:42.666Z,0
2016-05-28T01:43:42.982Z,0
2016-05-28T01:44:42.782Z,0
2016-05-28T01:45:42.440Z,0
2016-05-28T01:46:42.974Z,0
2016-05-28T01:47:42.977Z,0
2016-05-28T01:48:42.979Z,0
2016-05-28T01:49:42.592Z,0
2016-05-28T01:50:42.813Z,0
2016-05-28T01:51:42.769Z,0
2016-05-28T01:52:43.006Z,0
2016-05-28T01:53:42.774Z,0
2016-05-28T01:54:42.823Z,0
2016-05-28T01:55:42.373Z,0
2016-05-28T01:56:43.173Z,0
2016-05-28T01:57:42.973Z,0
2016-05-28T01:58:42.600Z,0
2016-05-28T01:59:42.556Z,0
2016-05-28T02:00:42.809Z,0
2016-05-28T02:01:42.467Z,0
2016-05-28T02:02:42.752Z,0
2016-05-28T02:03:42.972Z,0
2016-05-28T02:04:42.413Z,0
2016-05-28T02:05:42.885Z,0
2016-05-28T02:06:42.856Z,0
2016-05-28T02:07:42.750Z,0
2016-05-28T02:08:43.174Z,0
2016-05-28T02:09:42.958Z,0
2016-05-28T02:10:42.555Z,0
2016-05-28T02:11:42.449Z,0
2016-05-28T02:12:42.794Z,0
2016-05-28T02:13:42.546Z,0
2016-05-28T02:14:42.971Z,0
2016-05-28T02:15:43.005Z,0
2016-05-28T02:16:42.946Z,0
2016-05-28T02:17:42.948Z,0
2016-05-28T02:18:42.545Z,0
2016-05-28T02:19:43.062Z,0
2016-05-28T02:20:42.785Z,0
2016-05-28T02:21:42.740Z,0
2016-05-28T02:22:42.945Z,0
2016-05-28T02:23:42.949Z,0
2016-05-28T02:24:42.748Z,0
2016-05-28T02:25:42.798Z,0
2016-05-28T02:26:42.535Z,0
2016-05-28T02:27:42.522Z,0
2016-05-28T02:28:42.587Z,0
2016-05-28T02:29:42.747Z,0
2016-05-28T02:30:42.545Z,0
2016-05-28T02:31:42.736Z,0
2016-05-28T02:32:42.551Z,0
2016-05-28T02:33:42.928Z,0
2016-05-28T02:34:43.525Z,0
2016-05-28T02:35:42.793Z,0
2016-05-28T02:36:42.390Z,0
2016-05-28T02:37:43.144Z,0
2016-05-28T02:38:42.724Z,0
2016-05-28T02:39:42.930Z,0
2016-05-28T02:40:43.135Z,0
2016-05-28T02:41:42.935Z,0
2016-05-28T02:42:42.937Z,0
2016-05-28T02:43:42.925Z,0
2016-05-28T02:44:42.708Z,0
2016-05-28T02:45:42.976Z,0
2016-05-28T02:46:42.964Z,0
2016-05-28T02:47:42.716Z,0
2016-05-28T02:48:42.907Z,0
2016-05-28T02:49:43.659Z,0
2016-05-28T02:50:42.521Z,0
2016-05-28T02:51:42.931Z,0
2016-05-28T02:52:42.965Z,0
2016-05-28T02:53:42.718Z,0
2016-05-28T02:54:42.906Z,0
2016-05-28T02:55:42.972Z,0
2016-05-28T02:56:42.912Z,0
2016-05-28T02:57:42.556Z,0
2016-05-28T02:58:42.699Z,0
2016-05-28T02:59:42.905Z,0
2016-05-28T03:00:42.705Z,0
2016-05-28T03:01:42.691Z,0
2016-05-28T03:02:42.914Z,0
2016-05-28T03:03:42.697Z,0
2016-05-28T03:04:42.700Z,0
2016-05-28T03:05:42.608Z,0
2016-05-28T03:06:42.392Z,0
2016-05-28T03:07:42.488Z,0
2016-05-28T03:08:42.695Z,0
2016-05-28T03:09:42.947Z,0
2016-05-28T03:10:43.107Z,0
2016-05-28T03:11:43.094Z,0
2016-05-28T03:12:42.909Z,0
2016-05-28T03:13:42.755Z,0
2016-05-28T03:14:42.508Z,0
2016-05-28T03:15:42.682Z,0
2016-05-28T03:16:42.685Z,0
2016-05-28T03:17:42.875Z,0
2016-05-28T03:18:42.472Z,0
2016-05-28T03:19:42.396Z,0
2016-05-28T03:20:42.680Z,0
2016-05-28T03:21:42.667Z,0
2016-05-28T03:22:42.514Z,0
2016-05-28T03:23:42.923Z,0
2016-05-28T03:24:42.676Z,0
2016-05-28T03:25:42.678Z,0
2016-05-28T03:26:42.681Z,0
2016-05-28T03:27:42.886Z,0
2016-05-28T03:28:42.670Z,0
2016-05-28T03:29:42.470Z,0
2016-05-28T03:30:42.661Z,0
2016-05-28T03:31:42.459Z,0
2016-05-28T03:32:42.712Z,0
2016-05-28T03:33:42.669Z,0
2016-05-28T03:34:43.124Z,0
2016-05-28T03:35:43.736Z,0
2016-05-28T03:36:42.661Z,0
2016-05-28T03:37:42.272Z,0
2016-05-28T03:38:42.869Z,0
2016-05-28T03:39:42.871Z,0
2016-05-28T03:40:42.905Z,0
2016-05-28T03:41:42.706Z,0
2016-05-28T03:42:42.661Z,0
2016-05-28T03:43:42.710Z,0
2016-05-28T03:44:42.886Z,0
2016-05-28T03:45:42.841Z,0
2016-05-28T03:46:42.641Z,0
2016-05-28T03:47:42.237Z,0
2016-05-28T03:48:43.052Z,0
2016-05-28T03:49:43.024Z,0
2016-05-28T03:50:42.636Z,0
2016-05-28T03:51:42.842Z,0
2016-05-28T03:52:42.860Z,0
2016-05-28T03:53:42.848Z,0
2016-05-28T03:54:42.835Z,0
2016-05-28T03:55:42.853Z,0
2016-05-28T03:56:43.042Z,0
2016-05-28T03:57:42.842Z,0
2016-05-28T03:58:43.048Z,0
2016-05-28T03:59:42.831Z,0
2016-05-28T04:00:42.428Z,0
2016-05-28T04:01:42.650Z,0
2016-05-28T04:02:42.622Z,0
2016-05-28T04:03:42.843Z,0
2016-05-28T04:04:43.095Z,0
2016-05-28T04:05:42.630Z,0
2016-05-28T04:06:42.836Z,0
2016-05-28T04:07:42.681Z,0
2016-05-28T04:08:42.637Z,0
2016-05-28T04:09:43.031Z,0
2016-05-28T04:10:43.033Z,0
2016-05-28T04:11:42.614Z,0
2016-05-28T04:12:42.617Z,0
2016-05-28T04:13:42.822Z,0
2016-05-28T04:14:42.404Z,0
2016-05-28T04:15:42.625Z,0
2016-05-28T04:16:43.035Z,0
2016-05-28T04:17:42.802Z,0
2016-05-28T04:18:42.399Z,0
2016-05-28T04:19:42.621Z,0
2016-05-28T04:20:42.779Z,0
2016-05-28T04:21:42.798Z,0
2016-05-28T04:22:42.456Z,0
2016-05-28T04:23:42.443Z,0
2016-05-28T04:24:42.806Z,0
2016-05-28T04:25:42.605Z,0
2016-05-28T04:26:42.670Z,0
2016-05-28T04:27:42.845Z,0
2016-05-28T04:28:42.597Z,0
2016-05-28T04:29:43.022Z,0
2016-05-28T04:30:42.384Z,0
2016-05-28T04:31:42.589Z,0
2016-05-28T04:32:42.795Z,0
2016-05-28T04:33:42.376Z,0
2016-05-28T04:34:43.347Z,0
2016-05-28T04:35:42.585Z,0
2016-05-28T04:36:42.791Z,0
2016-05-28T04:37:42.778Z,0
2016-05-28T04:38:42.625Z,0
2016-05-28T04:39:42.580Z,0
2016-05-28T04:40:42.411Z,0
2016-05-28T04:41:42.773Z,0
2016-05-28T04:42:42.791Z,0
2016-05-28T04:43:42.419Z,0
2016-05-28T04:44:42.625Z,0
2016-05-28T04:45:42.784Z,0
2016-05-28T04:46:42.974Z,0
2016-05-28T04:47:42.368Z,0
2016-05-28T04:48:42.152Z,0
2016-05-28T04:49:43.373Z,0
2016-05-28T04:50:43.172Z,0
2016-05-28T04:51:42.769Z,0
2016-05-28T04:52:42.552Z,0
2016-05-28T04:53:42.977Z,0
2016-05-28T04:54:42.558Z,0
2016-05-28T04:55:42.748Z,0
2016-05-28T04:56:42.970Z,0
2016-05-28T04:57:41.862Z,0
2016-05-28T04:58:42.959Z,0
2016-05-28T04:59:42.384Z,0
2016-05-28T05:00:42.403Z,0
2016-05-28T05:01:42.436Z,0
2016-05-28T05:02:42.798Z,0
2016-05-28T05:03:42.957Z,0
2016-05-28T05:04:43.209Z,0
2016-05-28T05:05:42.916Z,0
2016-05-28T05:06:42.761Z,0
2016-05-28T05:07:42.733Z,0
2016-05-28T05:08:42.559Z,0
2016-05-28T05:09:42.820Z,0
2016-05-28T05:10:42.800Z,0
2016-05-28T05:11:42.202Z,0
2016-05-28T05:12:42.838Z,0
2016-05-28T05:13:42.454Z,0
2016-05-28T05:14:42.497Z,0
2016-05-28T05:15:42.680Z,0
2016-05-28T05:16:42.551Z,0
2016-05-28T05:17:42.688Z,0
2016-05-28T05:18:42.323Z,0
2016-05-28T05:19:44.187Z,0
2016-05-28T05:20:42.395Z,0
2016-05-28T05:21:42.918Z,0
2016-05-28T05:22:42.533Z,0
2016-05-28T05:23:42.693Z,0
2016-05-28T05:24:42.542Z,0
2016-05-28T05:25:42.701Z,0
2016-05-28T05:26:42.752Z,0
2016-05-28T05:27:42.709Z,0
2016-05-28T05:28:43.119Z,0
2016-05-28T05:29:42.700Z,0
2016-05-28T05:30:42.703Z,0
2016-05-28T05:31:42.144Z,0
2016-05-28T05:32:42.679Z,0
2016-05-28T05:33:42.697Z,0
2016-05-28T05:34:42.871Z,0
2016-05-28T05:35:43.451Z,0
2016-05-28T05:36:42.736Z,0
2016-05-28T05:37:42.535Z,0
2016-05-28T05:38:42.679Z,0
2016-05-28T05:39:42.931Z,0
2016-05-28T05:40:42.481Z,0
2016-05-28T05:41:42.671Z,0
2016-05-28T05:42:42.471Z,0
2016-05-28T05:43:42.879Z,0
2016-05-28T05:44:42.461Z,0
2016-05-28T05:45:42.682Z,0
2016-05-28T05:46:42.888Z,0
2016-05-28T05:47:42.156Z,0
2016-05-28T05:48:42.299Z,0
2016-05-28T05:49:42.584Z,0
2016-05-28T05:50:43.664Z,0
2016-05-28T05:51:42.276Z,0
2016-05-28T05:52:42.904Z,0
2016-05-28T05:53:42.266Z,0
2016-05-28T05:54:42.269Z,0
2016-05-28T05:55:42.693Z,0
2016-05-28T05:56:42.712Z,0
2016-05-28T05:57:42.449Z,0
2016-05-28T05:58:42.436Z,0
2016-05-28T05:59:42.345Z,0
2016-05-28T06:00:42.847Z,0
2016-05-28T06:01:42.663Z,0
2016-05-28T06:02:43.055Z,0
2016-05-28T06:03:42.653Z,0
2016-05-28T06:04:43.015Z,0
2016-05-28T06:05:42.893Z,0
2016-05-28T06:06:42.895Z,0
2016-05-28T06:07:42.850Z,0
2016-05-28T06:08:42.853Z,0
2016-05-28T06:09:42.482Z,0
2016-05-28T06:10:42.312Z,0
2016-05-28T06:11:42.829Z,0
2016-05-28T06:12:42.832Z,0
2016-05-28T06:13:42.226Z,0
2016-05-28T06:14:42.620Z,0
2016-05-28T06:15:42.669Z,0
2016-05-28T06:16:42.828Z,0
2016-05-28T06:17:42.643Z,0
2016-05-28T06:18:42.506Z,0
2016-05-28T06:19:43.430Z,0
2016-05-28T06:20:43.042Z,0
2016-05-28T06:21:42.826Z,0
2016-05-28T06:22:42.828Z,0
2016-05-28T06:23:42.816Z,0
2016-05-28T06:24:42.615Z,0
2016-05-28T06:25:42.602Z,0
2016-05-28T06:26:43.011Z,0
2016-05-28T06:27:42.827Z,0
2016-05-28T06:28:42.813Z,0
2016-05-28T06:29:43.003Z,0
2016-05-28T06:30:42.850Z,0
2016-05-28T06:31:42.602Z,0
2016-05-28T06:32:42.605Z,0
2016-05-28T06:33:42.608Z,0
2016-05-28T06:34:42.611Z,0
2016-05-28T06:35:42.801Z,0
2016-05-28T06:36:42.804Z,0
2016-05-28T06:37:42.384Z,0
2016-05-28T06:38:42.574Z,0
2016-05-28T06:39:42.593Z,0
2016-05-28T06:40:42.393Z,0
2016-05-28T06:41:42.801Z,0
2016-05-28T06:42:42.382Z,0
2016-05-28T06:43:42.573Z,0
2016-05-28T06:44:43.012Z,0
2016-05-28T06:45:42.578Z,4
2016-05-28T06:46:42.595Z,4
2016-05-28T06:47:42.224Z,4
2016-05-28T06:48:42.789Z,0
2016-05-28T06:49:43.792Z,0
2016-05-28T06:50:42.466Z,0
2016-05-28T06:51:42.625Z,0
2016-05-28T06:52:42.581Z,0
2016-05-28T06:53:42.567Z,0
2016-05-28T06:54:42.634Z,0
2016-05-28T06:55:42.573Z,0
2016-05-28T06:56:42.357Z,0
2016-05-28T06:57:42.767Z,0
2016-05-28T06:58:42.817Z,0
2016-05-28T06:59:42.366Z,0
2016-05-28T07:00:42.758Z,0
2016-05-28T07:01:42.355Z,0
2016-05-28T07:02:42.202Z,0
2016-05-28T07:03:42.391Z,0
2016-05-28T07:04:43.269Z,0
2016-05-28T07:05:42.772Z,0
2016-05-28T07:06:42.352Z,4
2016-05-28T07:07:42.762Z,0
2016-05-28T07:08:42.968Z,0
2016-05-28T07:09:42.393Z,0
2016-05-28T07:10:42.738Z,0
2016-05-28T07:11:42.945Z,0
2016-05-28T07:12:42.540Z,0
2016-05-28T07:13:42.543Z,0
2016-05-28T07:14:42.546Z,0
2016-05-28T07:15:42.533Z,0
2016-05-28T07:16:42.740Z,0
2016-05-28T07:17:42.586Z,0
2016-05-28T07:18:42.542Z,0
2016-05-28T07:19:43.403Z,0
2016-05-28T07:20:42.547Z,0
2016-05-28T07:21:42.517Z,0
2016-05-28T07:22:42.568Z,0
2016-05-28T07:23:42.320Z,0
2016-05-28T07:24:42.120Z,0
2016-05-28T07:25:42.733Z,0
2016-05-28T07:26:42.578Z,0
2016-05-28T07:27:42.363Z,0
2016-05-28T07:28:42.224Z,0
2016-05-28T07:29:42.119Z,0
2016-05-28T07:30:42.308Z,0
2016-05-28T07:31:42.716Z,0
2016-05-28T07:32:42.533Z,0
2016-05-28T07:33:42.505Z,0
2016-05-28T07:34:42.507Z,0
2016-05-28T07:35:42.649Z,0
2016-05-28T07:36:42.308Z,0
2016-05-28T07:37:42.718Z,4
2016-05-28T07:38:42.501Z,0
2016-05-28T07:39:42.707Z,0
2016-05-28T07:40:42.710Z,4
2016-05-28T07:41:42.916Z,0
2016-05-28T07:42:42.512Z,4
2016-05-28T07:43:42.718Z,0
2016-05-28T07:44:42.487Z,0
2016-05-28T07:45:42.692Z,0
2016-05-28T07:46:42.289Z,0
2016-05-28T07:47:42.884Z,4
2016-05-28T07:48:42.497Z,0
2016-05-28T07:49:42.265Z,0
2016-05-28T07:50:42.878Z,4
2016-05-28T07:51:42.692Z,0
2016-05-28T07:52:42.289Z,0
2016-05-28T07:53:42.698Z,0
2016-05-28T07:54:42.497Z,0
2016-05-28T07:55:42.531Z,0
2016-05-28T07:56:42.284Z,0
2016-05-28T07:57:42.678Z,0
2016-05-28T07:58:42.290Z,4
2016-05-28T07:59:42.277Z,0
2016-05-28T08:00:42.341Z,0
2016-05-28T08:01:42.267Z,0
2016-05-28T08:02:42.316Z,0
2016-05-28T08:03:42.475Z,4
2016-05-28T08:04:42.524Z,0
2016-05-28T08:05:42.996Z,4
2016-05-28T08:06:42.483Z,0
2016-05-28T08:07:42.876Z,4
2016-05-28T08:08:42.660Z,0
2016-05-28T08:09:42.476Z,0
2016-05-28T08:10:42.479Z,0
2016-05-28T08:11:42.652Z,0
2016-05-28T08:12:44.687Z,0
2016-05-28T08:13:42.471Z,0
2016-05-28T08:14:42.473Z,0
2016-05-28T08:15:42.507Z,0
2016-05-28T08:16:42.651Z,0
2016-05-28T08:17:42.450Z,0
2016-05-28T08:18:42.453Z,0
2016-05-28T08:19:43.331Z,0
2016-05-28T08:20:42.301Z,0
2016-05-28T08:21:42.446Z,0
2016-05-28T08:22:42.651Z,0
2016-05-28T08:23:42.247Z,0
2016-05-28T08:24:42.656Z,0
2016-05-28T08:25:42.253Z,0
2016-05-28T08:26:42.458Z,0
2016-05-28T08:27:42.259Z,0
2016-05-28T08:28:44.073Z,0
2016-05-28T08:29:42.639Z,4
2016-05-28T08:30:42.501Z,0
2016-05-28T08:31:42.503Z,4
2016-05-28T08:32:42.834Z,4
2016-05-28T08:33:42.243Z,0
2016-05-28T08:34:42.464Z,0
2016-05-28T08:35:42.780Z,0
2016-05-28T08:36:42.641Z,0
2016-05-28T08:37:42.847Z,0
2016-05-28T08:38:42.272Z,0
2016-05-28T08:39:42.838Z,0
2016-05-28T08:40:42.653Z,0
2016-05-28T08:41:42.218Z,0
2016-05-28T08:42:42.627Z,0
2016-05-28T08:43:42.629Z,0
2016-05-28T08:44:42.851Z,0
2016-05-28T08:45:42.448Z,0
2016-05-28T08:46:42.638Z,0
2016-05-28T08:47:42.843Z,0
2016-05-28T08:48:42.846Z,0
2016-05-28T08:49:42.646Z,0
2016-05-28T08:50:42.446Z,0
2016-05-28T08:51:42.417Z,0
2016-05-28T08:52:42.622Z,0
2016-05-28T08:53:42.220Z,0
2016-05-28T08:54:42.222Z,0
2016-05-28T08:55:42.428Z,0
2016-05-28T08:56:42.431Z,0
2016-05-28T08:57:42.214Z,0
2016-05-28T08:58:42.622Z,0
2016-05-28T08:59:42.469Z,0
2016-05-28T09:00:42.409Z,0
2016-05-28T09:01:42.616Z,0
2016-05-28T09:02:42.618Z,0
2016-05-28T09:03:42.606Z,0
2016-05-28T09:04:42.295Z,0
2016-05-28T09:05:42.517Z,0
2016-05-28T09:06:42.816Z,0
2016-05-28T09:07:42.616Z,0
2016-05-28T09:08:41.993Z,0
2016-05-28T09:09:42.605Z,0
2016-05-28T09:10:42.608Z,0
2016-05-28T09:11:42.408Z,0
2016-05-28T09:12:42.004Z,0
2016-05-28T09:13:42.616Z,0
2016-05-28T09:14:42.041Z,0
2016-05-28T09:15:42.247Z,0
2016-05-28T09:16:42.827Z,0
2016-05-28T09:17:42.237Z,0
2016-05-28T09:18:42.615Z,0
2016-05-28T09:19:42.773Z,0
2016-05-28T09:20:42.823Z,0
2016-05-28T09:21:42.215Z,4
2016-05-28T09:22:42.188Z,4
2016-05-28T09:23:42.596Z,0
2016-05-28T09:24:42.396Z,0
2016-05-28T09:25:42.181Z,0
2016-05-28T09:26:42.387Z,0
2016-05-28T09:27:42.186Z,0
2016-05-28T09:28:42.391Z,0
2016-05-28T09:29:42.191Z,0
2016-05-28T09:30:42.397Z,0
2016-05-28T09:31:42.243Z,0
2016-05-28T09:32:42.387Z,0
2016-05-28T09:33:42.232Z,0
2016-05-28T09:34:43.063Z,0
2016-05-28T09:35:42.066Z,0
2016-05-28T09:36:42.585Z,4
2016-05-28T09:37:42.587Z,0
2016-05-28T09:38:42.449Z,0
2016-05-28T09:39:42.389Z,0
2016-05-28T09:40:42.579Z,0
2016-05-28T09:41:42.614Z,0
2016-05-28T09:42:42.444Z,0
2016-05-28T09:43:42.385Z,0
2016-05-28T09:44:42.402Z,0
2016-05-28T09:45:42.015Z,0
2016-05-28T09:46:42.237Z,4
2016-05-28T09:47:42.177Z,0
2016-05-28T09:48:42.164Z,0
2016-05-28T09:49:43.198Z,0
2016-05-28T09:50:42.012Z,0
2016-05-28T09:51:42.375Z,0
2016-05-28T09:52:42.596Z,0
2016-05-28T09:53:42.583Z,0
2016-05-28T09:54:42.586Z,4
2016-05-28T09:55:42.229Z,0
2016-05-28T09:56:42.920Z,0
2016-05-28T09:57:42.031Z,0
2016-05-28T09:58:42.659Z,0
2016-05-28T09:59:42.631Z,0
2016-05-28T10:00:42.165Z,0
2016-05-28T10:01:42.777Z,0
2016-05-28T10:02:42.763Z,0
2016-05-28T10:03:42.391Z,4
2016-05-28T10:04:42.614Z,0
2016-05-28T10:05:43.428Z,0
2016-05-28T10:06:46.133Z,0
2016-05-28T10:07:42.372Z,0
2016-05-28T10:08:42.421Z,0
2016-05-28T10:09:42.392Z,0
2016-05-28T10:10:42.364Z,0
2016-05-28T10:11:45.367Z,0
2016-05-28T10:12:42.385Z,0
2016-05-28T10:13:42.449Z,4
2016-05-28T10:14:42.421Z,4
2016-05-28T10:15:42.565Z,0
2016-05-28T10:16:42.927Z,0
2016-05-28T10:17:42.571Z,0
2016-05-28T10:18:42.619Z,0
2016-05-28T10:19:42.560Z,0
2016-05-28T10:20:42.749Z,0
2016-05-28T10:21:42.002Z,0
2016-05-28T10:22:42.365Z,0
2016-05-28T10:23:42.790Z,0
2016-05-28T10:24:42.573Z,4
2016-05-28T10:25:42.575Z,0
2016-05-28T10:26:47.235Z,0
2016-05-28T10:27:42.159Z,0
2016-05-28T10:28:42.381Z,0
2016-05-28T10:29:42.164Z,0
2016-05-28T10:30:42.370Z,0
2016-05-28T10:31:42.373Z,0
2016-05-28T10:32:42.392Z,0
2016-05-28T10:33:42.363Z,0
2016-05-28T10:34:43.959Z,0
2016-05-28T10:35:42.400Z,0
2016-05-28T10:36:42.355Z,0
2016-05-28T10:37:42.592Z,0
2016-05-28T10:38:42.360Z,0
2016-05-28T10:39:42.566Z,0
2016-05-28T10:40:42.382Z,0
2016-05-28T10:41:42.166Z,0
2016-05-28T10:42:42.215Z,0
2016-05-28T10:43:42.171Z,0
2016-05-28T10:44:42.424Z,0
2016-05-28T10:45:42.566Z,0
2016-05-28T10:46:42.569Z,0
2016-05-28T10:47:42.791Z,0
2016-05-28T10:48:42.371Z,0
2016-05-28T10:49:42.827Z,0
2016-05-28T10:50:43.674Z,0
2016-05-28T10:51:42.365Z,0
2016-05-28T10:52:42.570Z,0
2016-05-28T10:53:42.370Z,0
2016-05-28T10:54:42.029Z,0
2016-05-28T10:55:43.438Z,0
2016-05-28T10:56:42.175Z,0
2016-05-28T10:57:42.584Z,0
2016-05-28T10:58:42.415Z,0
2016-05-28T10:59:42.386Z,0
2016-05-28T11:00:44.904Z,0
2016-05-28T11:01:42.578Z,0
2016-05-28T11:02:42.473Z,0
2016-05-28T11:03:42.584Z,0
2016-05-28T11:04:42.384Z,0
2016-05-28T11:05:44.370Z,0
2016-05-28T11:06:42.373Z,0
2016-05-28T11:07:42.595Z,0
2016-05-28T11:08:42.582Z,0
2016-05-28T11:09:42.163Z,0
2016-05-28T11:10:42.369Z,4
2016-05-28T11:11:42.777Z,0
2016-05-28T11:12:42.155Z,0
2016-05-28T11:13:42.580Z,0
2016-05-28T11:14:42.177Z,4
2016-05-28T11:15:42.788Z,0
2016-05-28T11:16:42.182Z,4
2016-05-28T11:17:42.372Z,0
2016-05-28T11:18:42.578Z,0
2016-05-28T11:19:42.268Z,0
2016-05-28T11:20:42.536Z,0
2016-05-28T11:21:42.383Z,4
2016-05-28T11:22:42.214Z,4
2016-05-28T11:23:41.965Z,4
2016-05-28T11:24:42.187Z,4
2016-05-28T11:25:42.409Z,4
2016-05-28T11:26:42.396Z,4
2016-05-28T11:27:44.367Z,4
2016-05-28T11:28:42.386Z,4
2016-05-28T11:29:42.404Z,4
2016-05-28T11:30:42.376Z,4
2016-05-28T11:31:42.800Z,4
2016-05-28T11:32:44.693Z,0
2016-05-28T11:33:42.431Z,0
2016-05-28T11:34:42.184Z,0
2016-05-28T11:35:43.405Z,0
2016-05-28T11:36:42.172Z,0
2016-05-28T11:37:46.472Z,4
2016-05-28T11:38:42.194Z,4
2016-05-28T11:39:42.650Z,4
2016-05-28T11:40:41.980Z,4
2016-05-28T11:41:42.390Z,4
2016-05-28T11:42:44.127Z,4
2016-05-28T11:43:42.801Z,4
2016-05-28T11:44:42.397Z,4
2016-05-28T11:45:42.588Z,4
2016-05-28T11:46:42.044Z,4
2016-05-28T11:47:43.734Z,4
2016-05-28T11:48:42.408Z,4
2016-05-28T11:49:42.801Z,4
2016-05-28T11:50:43.274Z,4
2016-05-28T11:51:42.385Z,4
2016-05-28T11:52:44.357Z,0
2016-05-28T11:53:42.593Z,0
2016-05-28T11:54:42.612Z,0
2016-05-28T11:55:42.599Z,0
2016-05-28T11:56:42.196Z,0
2016-05-28T11:57:45.260Z,4
2016-05-28T11:58:42.388Z,4
2016-05-28T11:59:41.984Z,4
2016-05-28T12:00:42.394Z,4
2016-05-28T12:01:42.428Z,4
2016-05-28T12:02:44.103Z,0
2016-05-28T12:03:42.605Z,0
2016-05-28T12:04:42.718Z,0
2016-05-28T12:05:42.454Z,0
2016-05-28T12:06:42.409Z,4
2016-05-28T12:07:45.226Z,4
2016-05-28T12:08:42.399Z,4
2016-05-28T12:09:42.465Z,20
2016-05-28T12:10:42.609Z,20
2016-05-28T12:11:42.423Z,16
2016-05-28T12:12:45.082Z,16
2016-05-28T12:13:42.445Z,16
2016-05-28T12:14:42.603Z,16
2016-05-28T12:15:42.403Z,20
2016-05-28T12:16:42.405Z,16
2016-05-28T12:17:44.502Z,20
2016-05-28T12:18:42.411Z,16
2016-05-28T12:19:42.492Z,20
2016-05-28T12:20:42.119Z,16
2016-05-28T12:21:42.247Z,20
2016-05-28T12:22:44.406Z,20
2016-05-28T12:23:42.659Z,16
2016-05-28T12:24:42.630Z,20
2016-05-28T12:25:42.446Z,20
2016-05-28T12:26:42.401Z,20
2016-05-28T12:27:45.185Z,20
2016-05-28T12:28:42.640Z,20
2016-05-28T12:29:42.269Z,20
2016-05-28T12:30:42.646Z,20
2016-05-28T12:31:42.008Z,20
2016-05-28T12:32:43.323Z,20
2016-05-28T12:33:42.623Z,20
2016-05-28T12:34:42.298Z,20
2016-05-28T12:35:42.237Z,16
2016-05-28T12:36:42.429Z,20
2016-05-28T12:37:44.056Z,20
2016-05-28T12:38:42.278Z,20
2016-05-28T12:39:42.062Z,16
2016-05-28T12:40:42.642Z,16
2016-05-28T12:41:42.629Z,20
2016-05-28T12:42:43.085Z,20
2016-05-28T12:43:42.431Z,20
2016-05-28T12:44:42.278Z,20
2016-05-28T12:45:42.874Z,16
2016-05-28T12:46:42.440Z,20
2016-05-28T12:47:48.645Z,16
2016-05-28T12:48:42.444Z,16
2016-05-28T12:49:42.369Z,8
2016-05-28T12:50:42.982Z,12
2016-05-28T12:51:42.437Z,12
2016-05-28T12:52:45.080Z,16
2016-05-28T12:53:42.302Z,12
2016-05-28T12:54:42.242Z,12
2016-05-28T12:55:42.041Z,12
2016-05-28T12:56:42.248Z,12
2016-05-28T12:57:46.203Z,12
2016-05-28T12:58:42.487Z,12
2016-05-28T12:59:42.678Z,12
2016-05-28T13:00:42.243Z,12
2016-05-28T13:01:42.714Z,12
2016-05-28T13:02:47.702Z,16
2016-05-28T13:03:42.642Z,20
2016-05-28T13:04:42.691Z,16
2016-05-28T13:05:42.522Z,12
2016-05-28T13:06:42.259Z,12
2016-05-28T13:07:46.262Z,12
2016-05-28T13:08:42.874Z,12
2016-05-28T13:09:42.861Z,12
2016-05-28T13:10:42.300Z,16
2016-05-28T13:11:42.678Z,16
2016-05-28T13:12:48.369Z,12
2016-05-28T13:13:42.465Z,12
2016-05-28T13:14:42.452Z,20
2016-05-28T13:15:42.314Z,20
2016-05-28T13:16:42.677Z,16
2016-05-28T13:17:43.444Z,12
2016-05-28T13:18:42.525Z,12
2016-05-28T13:19:43.012Z,20
2016-05-28T13:20:42.563Z,12
2016-05-28T13:21:42.518Z,8
2016-05-28T13:22:45.880Z,20
2016-05-28T13:23:42.321Z,16
2016-05-28T13:24:42.479Z,12
2016-05-28T13:25:42.513Z,12
2016-05-28T13:26:42.485Z,12
2016-05-28T13:27:46.221Z,24
2016-05-28T13:28:42.506Z,20
2016-05-28T13:29:42.274Z,16
2016-05-28T13:30:42.480Z,12
2016-05-28T13:31:42.701Z,12
2016-05-28T13:32:45.454Z,20
2016-05-28T13:33:42.691Z,20
2016-05-28T13:34:43.429Z,24
2016-05-28T13:35:42.509Z,16
2016-05-28T13:36:42.699Z,24
2016-05-28T13:37:45.937Z,24
2016-05-28T13:38:42.501Z,24
2016-05-28T13:39:42.504Z,20
2016-05-28T13:40:42.553Z,20
2016-05-28T13:41:42.509Z,24
2016-05-28T13:42:45.137Z,24
2016-05-28T13:43:42.281Z,24
2016-05-28T13:44:42.314Z,24
2016-05-28T13:45:42.145Z,24
2016-05-28T13:46:42.522Z,12
2016-05-28T13:47:46.978Z,16
2016-05-28T13:48:42.528Z,12
2016-05-28T13:49:42.561Z,16
2016-05-28T13:50:42.987Z,20
2016-05-28T13:51:42.927Z,12
2016-05-28T13:52:45.570Z,16
2016-05-28T13:53:41.963Z,20
2016-05-28T13:54:42.529Z,24
2016-05-28T13:55:42.000Z,28
2016-05-28T13:56:42.535Z,28
2016-05-28T13:57:46.380Z,24
2016-05-28T13:58:42.758Z,28
2016-05-28T13:59:42.776Z,24
2016-05-28T14:00:42.185Z,28
2016-05-28T14:01:42.344Z,28
2016-05-28T14:02:44.113Z,28
2016-05-28T14:03:42.740Z,24
2016-05-28T14:04:42.977Z,24
2016-05-28T14:05:42.730Z,24
2016-05-28T14:06:42.748Z,24
2016-05-28T14:07:45.423Z,24
2016-05-28T14:08:42.801Z,24
2016-05-28T14:09:42.554Z,28
2016-05-28T14:10:42.556Z,24
2016-05-28T14:11:42.761Z,28
2016-05-28T14:12:45.031Z,28
2016-05-28T14:13:42.611Z,24
2016-05-28T14:14:42.598Z,28
2016-05-28T14:15:42.405Z,24
2016-05-28T14:16:42.634Z,24
2016-05-28T14:17:43.598Z,24
2016-05-28T14:18:42.484Z,20
2016-05-28T14:19:43.157Z,20
2016-05-28T14:20:42.919Z,24
2016-05-28T14:21:42.712Z,24
2016-05-28T14:22:46.302Z,20
2016-05-28T14:23:42.376Z,16
2016-05-28T14:24:42.789Z,20
2016-05-28T14:25:42.764Z,20
2016-05-28T14:26:42.787Z,8
2016-05-28T14:27:47.448Z,8
2016-05-28T14:28:42.798Z,8
2016-05-28T14:29:42.787Z,8
2016-05-28T14:30:42.774Z,8
2016-05-28T14:31:42.763Z,8
2016-05-28T14:32:42.626Z,8
2016-05-28T14:33:42.988Z,12
2016-05-28T14:34:43.008Z,8
2016-05-28T14:35:42.636Z,12
2016-05-28T14:36:43.217Z,8
2016-05-28T14:37:47.909Z,12
2016-05-28T14:38:42.848Z,8
2016-05-28T14:39:42.649Z,12
2016-05-28T14:40:43.010Z,8
2016-05-28T14:41:42.810Z,8
2016-05-28T14:42:46.781Z,8